Time;durP1;ratioP1;P1;durP2;ratioP2;P2;SDS_P1;SDS_P2;PMS_P1;PMS_P2;Temp;Humidity;BMP_temperature;BMP_pressure;BME280_temperature;BME280_humidity;BME280_pressure;Samples;Min_cycle;Max_cycle;Signal;HPM_P1;HPM_P2
2022/04/23 00:02:04;;;;;;;1.15;0.60;;;;;;;22.41;40.80;97487.09;5132736;28;20506;-54
2022/04/23 00:04:30;;;;;;;1.13;0.70;;;;;;;22.41;40.72;97472.38;5112921;28;20051;-54
2022/04/23 00:06:59;;;;;;;0.70;0.60;;;;;;;22.41;40.59;97477.94;5111856;28;20186;-55
2022/04/23 00:09:25;;;;;;;1.05;0.75;;;;;;;22.41;40.81;97473.16;5112044;28;20058;-53
2022/04/23 00:11:52;;;;;;;1.40;0.80;;;;;;;22.41;40.64;97467.59;5112213;28;20051;-53
2022/04/23 00:14:18;;;;;;;1.58;0.75;;;;;;;22.41;40.68;97467.59;5112006;28;20046;-54
2022/04/23 00:16:44;;;;;;;1.25;0.80;;;;;;;22.39;40.46;97475.59;5112105;28;20533;-51
2022/04/23 00:19:10;;;;;;;1.17;0.80;;;;;;;22.39;40.54;97472.81;5111987;28;20051;-50
2022/04/23 00:21:35;;;;;;;1.38;0.70;;;;;;;22.41;40.46;97469.59;5112283;28;20427;-50
2022/04/23 00:24:01;;;;;;;1.10;0.70;;;;;;;22.40;40.46;97466.03;5112272;28;20050;-52
2022/04/23 00:26:26;;;;;;;0.80;0.60;;;;;;;22.41;40.44;97469.59;5111944;28;20126;-54
2022/04/23 00:28:51;;;;;;;0.63;0.60;;;;;;;22.39;40.26;97472.81;5112171;28;20048;-48
2022/04/23 00:31:17;;;;;;;0.73;0.60;;;;;;;22.37;40.14;97478.03;5112113;28;20407;-48
2022/04/23 00:33:42;;;;;;;1.48;0.63;;;;;;;22.37;40.22;97475.25;5111797;28;20073;-50
2022/04/23 00:36:10;;;;;;;0.93;0.70;;;;;;;22.36;40.21;97476.47;5111765;28;20108;-48
2022/04/23 00:38:39;;;;;;;0.75;0.60;;;;;;;22.36;40.03;97470.09;5111805;28;20046;-48
2022/04/23 00:41:05;;;;;;;0.73;0.60;;;;;;;22.35;39.61;97472.09;5111882;28;20048;-51
2022/04/23 00:43:33;;;;;;;1.00;0.65;;;;;;;22.35;39.67;97469.31;5111892;28;20044;-48
2022/04/23 00:45:59;;;;;;;0.88;0.60;;;;;;;22.33;39.56;97468.97;5111871;28;20055;-48
2022/04/23 00:48:26;;;;;;;1.10;0.63;;;;;;;22.36;39.46;97470.09;5110705;28;20051;-48
2022/04/23 00:50:54;;;;;;;1.75;0.70;;;;;;;22.36;38.96;97467.31;5111558;28;20051;-48
2022/04/23 00:53:21;;;;;;;0.95;0.57;;;;;;;22.35;38.77;97465.75;5111472;28;20697;-50
2022/04/23 00:55:47;;;;;;;0.80;0.50;;;;;;;22.35;38.23;97469.31;5111500;28;20039;-54
2022/04/23 00:58:15;;;;;;;0.50;0.40;;;;;;;22.37;38.05;97471.69;5111215;28;20088;-55
2022/04/23 01:00:42;;;;;;;0.77;0.50;;;;;;;22.37;38.19;97472.47;5111379;28;20043;-52
2022/04/23 01:03:07;;;;;;;0.68;0.50;;;;;;;22.37;37.73;97461.34;5111469;28;20059;-54
2022/04/23 01:05:33;;;;;;;0.80;0.60;;;;;;;22.37;37.95;97447.41;5109176;28;20047;-54
2022/04/23 01:08:02;;;;;;;0.88;0.50;;;;;;;22.38;37.71;97462.13;5111254;28;20080;-49
2022/04/23 01:10:28;;;;;;;0.60;0.40;;;;;;;22.34;37.08;97453.81;5111294;28;20164;-48
2022/04/23 01:12:54;;;;;;;0.52;0.43;;;;;;;22.36;37.13;97456.97;5111157;28;20032;-50
2022/04/23 01:15:21;;;;;;;0.63;0.47;;;;;;;22.35;37.20;97463.75;5111043;28;20171;-48
2022/04/23 01:17:47;;;;;;;0.50;0.40;;;;;;;22.33;37.14;97443.13;5111046;28;20437;-48
2022/04/23 01:20:14;;;;;;;1.00;0.50;;;;;;;22.34;37.24;97456.63;5109415;28;20040;-49
2022/04/23 01:22:42;;;;;;;0.80;0.50;;;;;;;22.35;37.23;97454.59;5111114;28;20050;-54
2022/04/23 01:25:10;;;;;;;0.70;0.45;;;;;;;22.35;37.62;97452.59;5111067;28;20048;-54
2022/04/23 01:27:36;;;;;;;0.77;0.50;;;;;;;22.34;37.57;97456.63;5110906;28;20047;-54
2022/04/23 01:30:02;;;;;;;0.70;0.55;;;;;;;22.34;37.43;97458.63;5110953;28;20130;-53
2022/04/23 01:32:28;;;;;;;0.60;0.50;;;;;;;22.33;37.40;97449.47;5110836;28;20043;-55
2022/04/23 01:34:53;;;;;;;0.50;0.32;;;;;;;22.34;37.43;97455.81;5110902;28;20054;-54
2022/04/23 01:37:18;;;;;;;0.52;0.50;;;;;;;22.33;37.64;97457.84;5110958;28;20043;-49
2022/04/23 01:39:47;;;;;;;1.15;0.60;;;;;;;22.31;37.58;97453.91;5110580;28;20428;-49
2022/04/23 01:42:13;;;;;;;0.60;0.40;;;;;;;22.33;37.60;97451.47;5092440;28;20096;-54
2022/04/23 01:44:39;;;;;;;1.30;0.60;;;;;;;22.34;37.50;97447.47;5110683;28;20089;-54
2022/04/23 01:47:04;;;;;;;0.52;0.40;;;;;;;22.33;37.50;97437.56;5110733;28;20056;-54
2022/04/23 01:49:29;;;;;;;0.73;0.50;;;;;;;22.33;37.43;97448.69;5110647;28;20063;-54
2022/04/23 01:51:55;;;;;;;0.40;0.40;;;;;;;22.32;37.30;97438.78;5110710;28;20178;-54
2022/04/23 01:54:20;;;;;;;1.27;0.52;;;;;;;22.31;37.48;97426.84;5110522;28;20069;-49
2022/04/23 01:56:46;;;;;;;0.60;0.47;;;;;;;22.30;37.57;97419.72;5110778;28;20060;-48
2022/04/23 01:59:11;;;;;;;0.60;0.40;;;;;;;22.29;37.64;97417.34;5110195;28;20050;-48
2022/04/23 02:01:37;;;;;;;0.77;0.55;;;;;;;22.28;37.29;97422.13;5109454;28;20119;-49
2022/04/23 02:04:06;;;;;;;0.63;0.43;;;;;;;22.28;37.03;97419.34;5110522;28;20050;-48
2022/04/23 02:06:33;;;;;;;0.88;0.52;;;;;;;22.23;36.86;97417.09;5109391;28;20039;-51
2022/04/23 02:09:00;;;;;;;0.82;0.52;;;;;;;22.25;37.02;97420.22;5110413;28;20044;-48
2022/04/23 02:11:25;;;;;;;0.60;0.40;;;;;;;22.25;36.89;97421.00;5110450;28;20050;-48
2022/04/23 02:13:51;;;;;;;0.85;0.57;;;;;;;22.25;36.70;97423.00;5110429;28;20047;-48
2022/04/23 02:16:16;;;;;;;1.00;0.50;;;;;;;22.25;36.77;97425.78;5110123;28;20380;-51
2022/04/23 02:18:42;;;;;;;0.93;0.45;;;;;;;22.25;36.90;97436.94;5110184;28;20084;-49
2022/04/23 02:21:07;;;;;;;0.40;0.30;;;;;;;22.22;36.97;97426.66;5110078;28;20036;-48
2022/04/23 02:23:32;;;;;;;0.38;0.30;;;;;;;22.21;36.98;97425.84;5110069;28;20073;-50
2022/04/23 02:25:58;;;;;;;0.73;0.40;;;;;;;22.22;37.04;97423.88;5110238;28;20465;-50
2022/04/23 02:28:24;;;;;;;0.57;0.40;;;;;;;22.18;36.87;97432.31;5109949;28;20052;-49
2022/04/23 02:30:49;;;;;;;0.43;0.30;;;;;;;22.19;36.91;97431.09;5110058;28;20052;-48
2022/04/23 02:33:15;;;;;;;0.50;0.40;;;;;;;22.20;36.97;97431.88;5110187;28;20043;-50
2022/04/23 02:35:40;;;;;;;0.60;0.40;;;;;;;22.22;36.66;97426.66;5110167;28;20108;-49
2022/04/23 02:38:06;;;;;;;0.80;0.50;;;;;;;22.20;36.82;97418.72;5110063;28;20044;-49
2022/04/23 02:40:31;;;;;;;0.57;0.40;;;;;;;22.17;36.93;97416.03;5109744;28;20054;-55
2022/04/23 02:42:57;;;;;;;0.80;0.50;;;;;;;22.15;36.92;97410.91;5110017;28;20047;-54
2022/04/23 02:45:25;;;;;;;0.93;0.60;;;;;;;22.17;36.73;97414.03;5110233;28;20075;-55
2022/04/23 02:47:53;;;;;;;1.40;0.63;;;;;;;22.16;36.73;97411.69;5109893;28;20491;-48
2022/04/23 02:50:28;;;;;;;0.50;0.30;;;;;;;22.15;36.58;97401.78;5109809;28;20044;-48
2022/04/23 02:52:56;;;;;;;0.98;0.50;;;;;;;22.18;36.37;97392.53;5109900;28;20062;-48
2022/04/23 02:55:23;;;;;;;0.65;0.43;;;;;;;22.18;35.99;97400.88;5109838;28;20073;-48
2022/04/23 02:57:48;;;;;;;0.98;0.50;;;;;;;22.15;36.33;97388.63;5109834;28;20079;-54
2022/04/23 03:00:14;;;;;;;0.30;0.30;;;;;;;22.15;36.34;97396.19;5091120;28;20071;-55
2022/04/23 03:02:40;;;;;;;0.32;0.32;;;;;;;22.15;35.99;97388.63;5109712;28;20521;-54
2022/04/23 03:05:08;;;;;;;0.40;0.40;;;;;;;22.14;36.07;97387.03;5109695;28;20487;-49
2022/04/23 03:07:35;;;;;;;0.20;0.20;;;;;;;22.16;36.07;97386.63;5109713;28;20047;-50
2022/04/23 03:10:04;;;;;;;0.93;0.50;;;;;;;22.16;35.91;97378.28;5109736;28;20127;-48
2022/04/23 03:12:30;;;;;;;0.82;0.40;;;;;;;22.18;35.57;97373.03;5111715;28;20488;-48
2022/04/23 03:14:56;;;;;;;0.50;0.30;;;;;;;22.16;35.88;97381.06;5113120;28;20039;-49
2022/04/23 03:17:22;;;;;;;0.43;0.40;;;;;;;22.17;35.86;97375.03;5113127;28;20457;-48
2022/04/23 03:19:48;;;;;;;0.55;0.40;;;;;;;22.15;35.56;97376.72;5113152;28;20050;-49
2022/04/23 03:22:16;;;;;;;0.25;0.20;;;;;;;22.15;35.61;97371.13;5113069;28;20051;-48
2022/04/23 03:24:44;;;;;;;0.90;0.43;;;;;;;22.14;35.53;97373.13;5112719;28;20047;-49
2022/04/23 03:27:09;;;;;;;0.50;0.40;;;;;;;22.19;35.74;97369.03;5112696;28;20048;-50
2022/04/23 03:29:35;;;;;;;0.40;0.30;;;;;;;22.18;35.69;97359.91;5112983;28;20415;-48
2022/04/23 03:32:00;;;;;;;0.50;0.40;;;;;;;22.19;35.13;97371.81;5112925;28;20043;-49
2022/04/23 03:34:26;;;;;;;0.50;0.20;;;;;;;22.17;35.33;97360.34;5112778;28;20050;-53
2022/04/23 03:36:52;;;;;;;0.28;0.20;;;;;;;22.15;35.41;97363.56;5112852;28;20044;-53
2022/04/23 03:39:18;;;;;;;0.40;0.30;;;;;;;22.14;35.39;97375.91;5112673;28;20048;-54
2022/04/23 03:41:44;;;;;;;0.57;0.32;;;;;;;22.14;35.74;97364.75;5112715;28;20050;-50
2022/04/23 03:44:09;;;;;;;0.70;0.50;;;;;;;22.16;35.42;97376.28;5112767;28;21435;-48
2022/04/23 03:46:34;;;;;;;0.52;0.40;;;;;;;22.16;35.47;97378.28;5112670;28;20040;-49
2022/04/23 03:49:00;;;;;;;0.52;0.40;;;;;;;22.15;35.83;97360.78;5112688;28;20399;-50
2022/04/23 03:51:25;;;;;;;0.70;0.38;;;;;;;22.17;35.44;97363.13;5112884;28;20078;-49
2022/04/23 03:53:51;;;;;;;0.40;0.30;;;;;;;22.14;35.62;97358.41;5112609;28;20031;-55
2022/04/23 03:56:16;;;;;;;0.95;0.40;;;;;;;22.11;35.24;97354.50;5112668;28;20043;-54
2022/04/23 03:58:43;;;;;;;0.35;0.30;;;;;;;22.14;35.26;97358.41;5112543;28;20410;-54
2022/04/23 04:01:08;;;;;;;0.95;0.40;;;;;;;22.14;34.97;97350.84;5112339;28;20501;-54
2022/04/23 04:03:34;;;;;;;0.40;0.30;;;;;;;22.15;34.99;97360.78;5112209;28;20044;-54
2022/04/23 04:06:00;;;;;;;0.80;0.50;;;;;;;22.16;35.24;97350.44;5112072;28;20044;-54
2022/04/23 04:08:25;;;;;;;0.35;0.30;;;;;;;22.15;35.34;97355.22;5112092;28;20062;-55
2022/04/23 04:10:51;;;;;;;0.80;0.40;;;;;;;22.17;35.05;97346.41;5112313;28;20380;-54
2022/04/23 04:13:16;;;;;;;0.85;0.40;;;;;;;22.16;35.29;97356.00;5112206;28;20046;-54
2022/04/23 04:15:45;;;;;;;0.30;0.20;;;;;;;22.48;34.45;97356.00;5112343;28;20078;-55
2022/04/23 04:18:12;;;;;;;0.68;0.38;;;;;;;23.14;33.44;97353.13;5112186;28;20040;-54
2022/04/23 04:20:39;;;;;;;0.25;0.25;;;;;;;23.17;33.07;97349.47;5112065;28;20040;-55
2022/04/23 04:23:08;;;;;;;0.90;0.43;;;;;;;23.01;33.39;97341.94;5111043;28;20554;-54
2022/04/23 04:25:34;;;;;;;1.00;0.40;;;;;;;22.83;33.67;97345.16;5111901;28;20097;-55
2022/04/23 04:28:01;;;;;;;0.50;0.30;;;;;;;22.66;34.19;97340.84;5111878;28;20116;-54
2022/04/23 04:30:27;;;;;;;0.77;0.40;;;;;;;22.59;34.29;97354.97;5112098;28;20050;-48
2022/04/23 04:32:52;;;;;;;0.30;0.30;;;;;;;22.51;34.38;97344.00;5112101;28;20043;-49
2022/04/23 04:35:18;;;;;;;0.65;0.40;;;;;;;22.46;34.21;97341.72;5111911;28;20039;-51
2022/04/23 04:37:44;;;;;;;0.65;0.47;;;;;;;22.40;34.19;97346.25;5080024;28;20098;-54
2022/04/23 04:40:11;;;;;;;0.35;0.30;;;;;;;22.37;34.50;97344.34;5111709;28;20047;-54
2022/04/23 04:42:36;;;;;;;0.32;0.30;;;;;;;22.33;34.30;97346.41;5111842;28;20036;-53
2022/04/23 04:45:03;;;;;;;0.93;0.40;;;;;;;22.35;34.36;97349.53;5111548;28;20062;-48
2022/04/23 04:47:29;;;;;;;0.47;0.40;;;;;;;22.34;34.58;97356.34;5111536;28;20434;-51
2022/04/23 04:49:55;;;;;;;0.32;0.30;;;;;;;22.34;34.43;97361.91;5111641;28;20499;-48
2022/04/23 04:52:20;;;;;;;0.30;0.28;;;;;;;22.32;34.38;97358.78;5111443;28;20035;-55
2022/04/23 04:54:46;;;;;;;0.30;0.30;;;;;;;22.30;34.41;97341.72;5111556;28;20048;-54
2022/04/23 04:57:11;;;;;;;0.40;0.30;;;;;;;22.31;34.58;97342.50;5111460;28;20040;-52
2022/04/23 04:59:37;;;;;;;0.95;0.43;;;;;;;22.31;34.41;97353.66;5111330;28;20048;-48
2022/04/23 05:02:03;;;;;;;0.52;0.30;;;;;;;22.29;34.74;97364.44;5111493;28;20048;-48
2022/04/23 05:04:29;;;;;;;0.80;0.40;;;;;;;22.30;34.81;97355.66;5111489;28;20046;-48
2022/04/23 05:06:55;;;;;;;0.55;0.40;;;;;;;22.29;34.63;97354.09;5111347;28;20052;-50
2022/04/23 05:09:21;;;;;;;0.30;0.30;;;;;;;22.27;34.97;97359.28;5111233;28;20089;-48
2022/04/23 05:11:46;;;;;;;0.75;0.50;;;;;;;22.30;34.97;97352.09;5111342;28;20039;-49
2022/04/23 05:14:12;;;;;;;0.60;0.50;;;;;;;22.30;35.10;97354.88;5111407;28;20848;-48
2022/04/23 05:16:37;;;;;;;0.35;0.35;;;;;;;22.32;35.06;97374.72;5110743;28;20040;-48
2022/04/23 05:19:03;;;;;;;0.95;0.50;;;;;;;22.31;35.09;97371.16;5111013;28;20066;-49
2022/04/23 05:21:28;;;;;;;0.40;0.30;;;;;;;22.31;35.30;97362.00;5110057;28;20036;-49
2022/04/23 05:23:53;;;;;;;0.60;0.50;;;;;;;22.31;35.28;97359.22;5111158;28;20078;-49
2022/04/23 05:26:19;;;;;;;0.43;0.35;;;;;;;22.31;35.27;97370.38;5111230;28;20123;-49
2022/04/23 05:28:44;;;;;;;0.85;0.50;;;;;;;22.31;35.33;97373.94;5110824;28;20066;-48
2022/04/23 05:31:10;;;;;;;0.60;0.40;;;;;;;22.30;35.27;97369.59;5110968;28;20043;-49
2022/04/23 05:33:36;;;;;;;0.40;0.35;;;;;;;22.29;35.42;97367.22;5110818;28;20135;-49
2022/04/23 05:36:05;;;;;;;1.00;0.55;;;;;;;22.31;35.40;97384.28;5110657;28;20040;-55
2022/04/23 05:38:31;;;;;;;0.85;0.60;;;;;;;22.31;35.64;97387.84;5111005;28;20529;-53
2022/04/23 05:40:56;;;;;;;0.70;0.50;;;;;;;22.30;35.71;97375.16;5110741;28;20043;-53
2022/04/23 05:43:22;;;;;;;0.70;0.40;;;;;;;22.32;35.78;97383.84;5110909;28;20054;-54
2022/04/23 05:45:47;;;;;;;0.95;0.60;;;;;;;22.32;35.81;97369.16;5110821;28;20388;-54
2022/04/23 05:48:13;;;;;;;0.73;0.45;;;;;;;22.30;36.01;97369.59;5110707;28;20465;-54
2022/04/23 05:50:38;;;;;;;0.95;0.55;;;;;;;22.31;35.90;97379.50;5110713;28;20388;-54
2022/04/23 05:53:04;;;;;;;1.52;0.77;;;;;;;22.28;36.31;97385.94;5110681;28;20502;-54
2022/04/23 05:55:29;;;;;;;0.98;0.63;;;;;;;22.29;36.08;97379.16;5110770;28;20039;-48
2022/04/23 05:57:55;;;;;;;0.85;0.52;;;;;;;22.30;36.04;97375.16;5110616;28;20055;-49
2022/04/23 06:00:20;;;;;;;1.23;0.73;;;;;;;22.30;36.33;97368.81;5110440;28;20043;-48
2022/04/23 06:02:46;;;;;;;1.55;0.90;;;;;;;22.30;36.26;97366.03;5110592;28;20566;-49
2022/04/23 06:05:11;;;;;;;0.93;0.60;;;;;;;22.31;36.35;97364.78;5110571;28;20399;-48
2022/04/23 06:07:37;;;;;;;0.85;0.60;;;;;;;22.32;36.19;97364.34;5110468;28;20054;-48
2022/04/23 06:10:04;;;;;;;1.20;0.68;;;;;;;22.31;36.25;97360.00;5110611;28;20422;-48
2022/04/23 06:12:29;;;;;;;1.73;0.80;;;;;;;22.31;36.23;97376.72;5110208;28;20043;-54
2022/04/23 06:14:54;;;;;;;0.88;0.50;;;;;;;22.32;36.64;97363.56;5110236;28;20084;-55
2022/04/23 06:17:28;;;;;;;0.90;0.60;;;;;;;22.31;36.54;97371.16;5110103;28;20116;-54
2022/04/23 06:19:55;;;;;;;1.30;0.52;;;;;;;22.33;36.73;97373.50;5110054;28;20047;-55
2022/04/23 06:22:22;;;;;;;0.80;0.50;;;;;;;22.33;36.96;97377.06;5110475;28;20036;-54
2022/04/23 06:24:47;;;;;;;0.88;0.60;;;;;;;22.30;36.65;97366.81;5110265;28;20050;-54
2022/04/23 06:27:13;;;;;;;1.10;0.80;;;;;;;22.32;36.99;97369.16;5110152;28;20040;-55
2022/04/23 06:29:39;;;;;;;1.00;0.70;;;;;;;22.31;37.20;97362.78;5110210;28;20136;-54
2022/04/23 06:32:05;;;;;;;1.17;0.65;;;;;;;22.30;36.95;97355.66;5110277;28;20046;-54
2022/04/23 06:34:30;;;;;;;1.45;0.80;;;;;;;22.32;37.24;97360.78;5109693;28;20048;-54
2022/04/23 06:36:56;;;;;;;1.27;0.70;;;;;;;22.31;37.24;97359.22;5109909;28;20184;-54
2022/04/23 06:39:21;;;;;;;1.05;0.75;;;;;;;22.30;37.32;97347.31;5110038;28;20043;-54
2022/04/23 06:41:47;;;;;;;1.27;0.80;;;;;;;22.31;37.34;97362.00;5109754;28;20376;-55
2022/04/23 06:44:13;;;;;;;0.90;0.68;;;;;;;22.33;37.60;97367.91;5092042;28;20071;-54
2022/04/23 06:46:38;;;;;;;1.10;0.70;;;;;;;22.31;37.68;97351.66;5090448;28;20394;-54
2022/04/23 06:49:05;;;;;;;1.15;0.70;;;;;;;22.28;37.86;97341.38;5093259;28;20538;-55
2022/04/23 06:51:31;;;;;;;1.55;0.80;;;;;;;22.32;38.08;97358.00;5093052;28;20080;-54
2022/04/23 06:53:57;;;;;;;1.42;0.90;;;;;;;22.33;37.83;97373.50;5093015;28;20054;-54
2022/04/23 06:56:22;;;;;;;1.73;0.82;;;;;;;22.33;38.06;97365.91;5093115;28;20048;-54
2022/04/23 06:58:48;;;;;;;1.80;0.98;;;;;;;22.35;37.98;97380.19;5092968;28;20054;-54
2022/04/23 07:01:15;;;;;;;1.73;0.85;;;;;;;22.37;38.22;97404.84;5092707;28;20071;-55
2022/04/23 07:03:40;;;;;;;1.58;0.90;;;;;;;22.36;38.23;97412.41;5093161;28;20106;-54
2022/04/23 07:06:06;;;;;;;1.40;0.80;;;;;;;22.34;38.28;97366.69;5093080;28;20044;-52
2022/04/23 07:08:31;;;;;;;1.23;0.70;;;;;;;22.36;38.48;97386.53;5092738;28;20529;-54
2022/04/23 07:10:58;;;;;;;1.42;0.95;;;;;;;22.36;38.66;97403.25;5092883;28;20056;-54
2022/04/23 07:13:23;;;;;;;2.15;0.88;;;;;;;22.34;38.55;97408.47;5092816;28;20098;-54
2022/04/23 07:15:48;;;;;;;1.23;0.80;;;;;;;22.35;38.53;97407.25;5092816;28;20044;-49
2022/04/23 07:18:14;;;;;;;1.48;0.85;;;;;;;22.36;38.69;97419.97;5092447;28;20098;-49
2022/04/23 07:20:39;;;;;;;1.27;0.70;;;;;;;22.35;38.87;97402.47;5092598;28;20135;-48
2022/04/23 07:25:50;;;;;;;1.15;0.80;;;;;;;22.35;38.65;97396.91;5092654;28;20048;-49
2022/04/23 07:28:15;;;;;;;1.35;0.80;;;;;;;22.33;38.50;97407.69;5092601;28;20036;-48
2022/04/23 07:30:41;;;;;;;1.30;0.80;;;;;;;22.33;38.72;97413.28;5092509;28;20048;-48
2022/04/23 07:33:06;;;;;;;1.05;0.70;;;;;;;22.34;38.68;97417.63;5092458;28;20520;-48
2022/04/23 07:38:17;;;;;;;1.40;0.80;;;;;;;22.34;38.96;97406.47;5089250;28;20483;-54
2022/04/23 07:40:43;;;;;;;1.27;0.88;;;;;;;22.34;38.81;97406.47;5092086;28;20048;-54
2022/04/23 07:43:14;;;;;;;1.23;0.80;;;;;;;22.34;38.79;97400.91;5092252;28;20158;-54
2022/04/23 07:45:44;;;;;;;1.45;0.73;;;;;;;22.33;38.96;97399.34;5092237;28;20040;-54
2022/04/23 07:48:11;;;;;;;1.25;0.80;;;;;;;22.34;38.69;97391.75;5074067;28;20388;-54
2022/04/23 07:50:38;;;;;;;1.17;0.80;;;;;;;22.34;38.95;97384.19;5092099;28;20040;-52
2022/04/23 07:53:04;;;;;;;1.58;0.90;;;;;;;22.34;39.04;97392.56;5091954;28;20456;-55
2022/04/23 07:55:35;;;;;;;1.20;0.70;;;;;;;22.35;39.08;97401.69;5092074;28;20070;-55
2022/04/23 07:58:01;;;;;;;1.05;0.73;;;;;;;22.35;38.78;97396.13;5092230;28;20445;-49
2022/04/23 08:00:26;;;;;;;0.80;0.52;;;;;;;22.34;38.45;97405.69;5091969;28;20044;-48
2022/04/23 08:02:52;;;;;;;1.80;0.80;;;;;;;22.33;38.28;97393.78;5091699;28;20036;-48
2022/04/23 08:05:18;;;;;;;0.85;0.60;;;;;;;22.34;38.37;97402.91;5091910;28;20404;-49
2022/04/23 08:07:44;;;;;;;1.23;0.70;;;;;;;22.32;37.70;97392.22;5091642;28;20060;-48
2022/04/23 08:10:10;;;;;;;1.30;0.60;;;;;;;22.33;37.54;97393.00;5091972;28;20101;-48
2022/04/23 08:12:36;;;;;;;1.10;0.68;;;;;;;22.34;37.37;97395.34;5091974;28;20048;-48
2022/04/23 08:15:05;;;;;;;0.70;0.50;;;;;;;22.33;37.47;97398.56;5091919;28;20047;-50
2022/04/23 08:17:31;;;;;;;0.60;0.50;;;;;;;22.33;37.79;97396.56;5091746;28;20123;-48
2022/04/23 08:19:57;;;;;;;0.70;0.55;;;;;;;22.35;37.67;97402.47;5091786;28;20074;-50
2022/04/23 08:22:23;;;;;;;1.00;0.63;;;;;;;22.33;37.52;97421.63;5091643;28;20679;-49
2022/04/23 08:24:48;;;;;;;1.00;0.65;;;;;;;22.35;37.80;97432.31;5057220;28;20095;-49
2022/04/23 08:27:14;;;;;;;1.15;0.60;;;;;;;22.35;37.61;97423.97;5091673;28;20052;-50
2022/04/23 08:32:23;;;;;;;0.80;0.60;;;;;;;22.35;37.65;97416.41;5091726;28;20098;-49
2022/04/23 08:34:49;;;;;;;1.15;0.70;;;;;;;22.34;37.91;97409.25;5091617;28;20419;-49
2022/04/23 08:37:14;;;;;;;0.80;0.60;;;;;;;22.34;37.58;97409.25;5091106;28;20048;-51
2022/04/23 08:39:42;;;;;;;0.57;0.40;;;;;;;22.34;37.47;97412.03;5091362;28;20454;-50
2022/04/23 08:42:09;;;;;;;0.73;0.57;;;;;;;22.35;37.08;97407.25;5091407;28;20040;-51
2022/04/23 08:44:35;;;;;;;0.90;0.50;;;;;;;22.33;36.76;97390.97;5091194;28;20519;-48
2022/04/23 08:47:00;;;;;;;0.77;0.57;;;;;;;22.34;36.80;97394.56;5091368;28;20051;-48
2022/04/23 08:49:29;;;;;;;0.80;0.60;;;;;;;22.34;36.73;97389.75;5091117;28;20481;-50
2022/04/23 08:52:20;;;;;;;1.55;0.60;;;;;;;22.33;36.63;97388.19;5091110;28;20044;-52
2022/04/23 08:54:47;;;;;;;0.55;0.45;;;;;;;22.35;36.07;97393.34;5067657;28;20135;-51
2022/04/23 08:57:12;;;;;;;0.77;0.47;;;;;;;22.35;36.28;97373.84;5106553;28;20520;-49
2022/04/23 08:59:38;;;;;;;0.52;0.35;;;;;;;22.36;36.18;97367.03;5111413;28;20623;-51
2022/04/23 09:02:13;;;;;;;0.50;0.43;;;;;;;22.34;35.79;97359.13;5111105;28;20047;-49
2022/04/23 09:04:42;;;;;;;0.70;0.40;;;;;;;22.36;35.55;97359.50;5111321;28;20056;-49
2022/04/23 09:07:18;;;;;;;0.82;0.43;;;;;;;22.34;35.53;97366.69;5108986;28;20063;-49
2022/04/23 09:09:53;;;;;;;0.70;0.47;;;;;;;22.36;35.45;97369.81;5110823;28;20051;-51
2022/04/23 09:12:24;;;;;;;0.77;0.40;;;;;;;22.37;35.59;97371.41;5111380;28;20079;-49
2022/04/23 09:14:53;;;;;;;0.55;0.38;;;;;;;22.36;35.44;97367.03;5092735;28;20408;-51
2022/04/23 09:25:42;;;;;;;0.43;0.32;;;;;;;22.38;34.99;97350.69;5111401;28;20456;-51
2022/04/23 09:28:15;;;;;;;0.40;0.30;;;;;;;22.36;35.17;97345.56;5092550;28;20407;-49
2022/04/23 09:30:41;;;;;;;0.85;0.45;;;;;;;22.38;34.83;97345.91;5111208;28;20506;-49
2022/04/23 09:33:06;;;;;;;0.47;0.40;;;;;;;22.37;34.93;97349.91;5111034;28;20123;-48
2022/04/23 09:35:32;;;;;;;0.52;0.30;;;;;;;22.37;35.04;97344.34;5111286;28;20044;-49
2022/04/23 09:38:15;;;;;;;0.47;0.30;;;;;;;22.36;35.06;97339.19;5111013;28;20491;-50
2022/04/23 09:40:41;;;;;;;0.40;0.30;;;;;;;22.38;35.01;97356.28;5110597;28;20048;-49
2022/04/23 09:43:11;;;;;;;0.60;0.32;;;;;;;22.38;34.92;97354.25;5110581;28;20057;-49
2022/04/23 09:45:42;;;;;;;0.28;0.20;;;;;;;22.39;34.59;97360.63;5110759;28;20134;-49
2022/04/23 09:48:17;;;;;;;0.20;0.20;;;;;;;22.37;34.73;97357.50;5110798;28;20050;-50
2022/04/23 09:50:47;;;;;;;0.68;0.40;;;;;;;22.39;34.85;97357.84;5110846;28;20050;-49
2022/04/23 09:53:20;;;;;;;0.22;0.20;;;;;;;22.39;34.84;97364.19;5110808;28;20040;-52
2022/04/23 09:55:47;;;;;;;0.55;0.40;;;;;;;22.38;34.98;97361.84;5110920;28;20039;-49
2022/04/23 09:58:13;;;;;;;0.55;0.20;;;;;;;22.38;34.91;97353.47;5110716;28;20044;-49
2022/04/23 10:00:41;;;;;;;0.30;0.22;;;;;;;22.38;35.01;97362.63;5110579;28;20044;-49
2022/04/23 10:03:07;;;;;;;0.47;0.30;;;;;;;22.40;34.82;97373.31;5110362;28;20074;-50
2022/04/23 10:05:51;;;;;;;0.73;0.32;;;;;;;22.38;34.93;97368.19;5110503;28;20123;-49
2022/04/23 10:08:22;;;;;;;0.20;0.20;;;;;;;22.40;34.89;97356.59;5110454;28;20048;-49
2022/04/23 10:11:13;;;;;;;0.52;0.30;;;;;;;22.39;34.75;97344.69;5110575;28;20131;-55
2022/04/23 10:13:40;;;;;;;0.77;0.20;;;;;;;22.41;34.84;97333.88;5110526;28;20054;-54
2022/04/23 10:16:07;;;;;;;0.30;0.30;;;;;;;22.39;34.82;97321.63;5110494;28;20049;-55
2022/04/23 10:18:38;;;;;;;0.20;0.20;;;;;;;22.40;35.01;97323.97;5110187;28;20079;-54
2022/04/23 10:21:08;;;;;;;0.28;0.28;;;;;;;22.40;34.90;97323.97;5109260;28;20077;-54
2022/04/23 10:23:49;;;;;;;0.30;0.30;;;;;;;22.39;34.80;97325.19;5110050;28;20135;-54
2022/04/23 10:26:17;;;;;;;0.20;0.20;;;;;;;22.40;34.78;97310.03;5110450;28;20090;-54
2022/04/23 10:28:44;;;;;;;0.32;0.22;;;;;;;22.40;34.92;97306.47;5110221;28;20499;-54
2022/04/23 10:31:16;;;;;;;0.28;0.20;;;;;;;22.39;35.04;97305.69;5110323;28;20047;-52
2022/04/23 10:33:47;;;;;;;0.60;0.32;;;;;;;22.39;34.56;97308.47;5110301;28;20044;-54
2022/04/23 10:36:13;;;;;;;0.20;0.20;;;;;;;22.38;34.86;97311.69;5110124;28;20039;-54
2022/04/23 10:38:51;;;;;;;0.30;0.30;;;;;;;22.39;34.82;97304.91;5110123;28;20038;-48
2022/04/23 10:41:18;;;;;;;0.40;0.30;;;;;;;22.38;34.63;97298.56;5109981;28;20522;-47
2022/04/23 10:43:49;;;;;;;0.30;0.15;;;;;;;22.37;34.64;97299.78;5109655;28;20036;-49
2022/04/23 10:46:36;;;;;;;0.15;0.10;;;;;;;22.37;34.73;97291.44;5109873;28;20052;-48
2022/04/23 10:49:17;;;;;;;0.32;0.20;;;;;;;22.40;34.78;97298.91;5109806;28;20051;-51
2022/04/23 10:51:49;;;;;;;0.20;0.15;;;;;;;22.41;34.37;97292.09;5110044;28;20048;-50
2022/04/23 10:54:18;;;;;;;0.40;0.20;;;;;;;22.42;34.44;97304.03;5110102;28;20047;-51
2022/04/23 10:56:48;;;;;;;0.32;0.20;;;;;;;22.39;34.59;97283.41;5110018;28;20301;-54
2022/04/23 10:59:45;;;;;;;0.22;0.20;;;;;;;22.39;34.33;97296.56;5110064;28;20039;-49
2022/04/23 11:02:20;;;;;;;0.30;0.20;;;;;;;22.40;34.59;97312.81;5110014;28;20115;-54
2022/04/23 11:12:14;;;;;;;0.20;0.20;;;;;;;22.39;34.54;97311.25;5109780;28;20082;-55
2022/04/23 11:13:25;;;;;;;0.10;0.10;;;;;;;22.39;34.57;97327.19;5109850;28;20100;-48
2022/04/23 11:16:16;;;;;;;0.30;0.25;;;;;;;22.39;34.88;97329.97;5109360;28;20086;-48
2022/04/23 11:18:46;;;;;;;0.20;0.20;;;;;;;22.40;34.74;97337.09;5109576;28;20047;-49
2022/04/23 11:21:26;;;;;;;0.15;0.15;;;;;;;22.39;34.91;97327.97;5109304;28;20035;-48
2022/04/23 11:23:55;;;;;;;0.22;0.20;;;;;;;22.41;35.01;97328.31;5109120;28;20078;-50
2022/04/23 11:26:22;;;;;;;0.20;0.20;;;;;;;22.41;34.97;97328.31;5109292;28;20058;-49
2022/04/23 11:28:59;;;;;;;0.25;0.20;;;;;;;22.41;35.22;97319.16;5109230;28;20060;-49
2022/04/23 11:31:26;;;;;;;0.30;0.20;;;;;;;22.43;34.97;97311.97;5109377;28;20066;-48
2022/04/23 11:33:56;;;;;;;0.30;0.20;;;;;;;22.41;35.21;97310.81;5112208;28;20139;-49
2022/04/23 11:36:28;;;;;;;0.10;0.08;;;;;;;22.40;35.22;97304.47;5112844;28;20127;-48
2022/04/23 11:38:55;;;;;;;0.17;0.10;;;;;;;22.43;35.23;97294.44;5112969;28;20047;-51
2022/04/23 11:41:26;;;;;;;0.30;0.20;;;;;;;22.42;35.23;97285.31;5113046;28;20130;-51
2022/04/23 11:43:52;;;;;;;0.43;0.20;;;;;;;22.43;35.15;97272.16;5107711;28;20042;-51
2022/04/23 11:46:17;;;;;;;0.17;0.13;;;;;;;22.43;35.04;97261.00;5102883;28;20043;-53
2022/04/23 11:48:46;;;;;;;0.93;0.30;;;;;;;22.46;35.17;97258.16;5103806;28;20079;-53
2022/04/23 11:51:12;;;;;;;0.22;0.20;;;;;;;22.44;35.34;97260.59;5104101;28;20036;-53
2022/04/23 11:54:00;;;;;;;0.10;0.10;;;;;;;22.40;35.23;97254.31;5103640;28;20035;-52
2022/04/23 11:56:33;;;;;;;0.30;0.20;;;;;;;22.46;35.23;97263.72;5105920;28;20453;-53
2022/04/23 11:59:10;;;;;;;0.15;0.10;;;;;;;22.49;35.42;97248.91;5107380;28;20562;-53